Time;durP1;ratioP1;P1;durP2;ratioP2;P2;SDS_P1;SDS_P2;PMS_P1;PMS_P2;Temp;Humidity;BMP_temperature;BMP_pressure;BME280_temperature;BME280_humidity;BME280_pressure;Samples;Min_cycle;Max_cycle;Signal;HPM_P1;HPM_P2
2021/05/19 00:01:47;;;;;;;10.30;8.82;;;7.40;99.90;;;;;;5151734;27;20074;-51
2021/05/19 00:04:19;;;;;;;15.07;9.77;;;7.30;99.90;;;;;;5150626;27;20129;-48
2021/05/19 00:06:46;;;;;;;13.73;9.98;;;7.30;99.90;;;;;;5151615;27;20061;-50
2021/05/19 00:09:15;;;;;;;12.13;10.18;;;7.30;99.90;;;;;;5152258;27;20043;-51
2021/05/19 00:11:46;;;;;;;24.70;10.68;;;7.30;99.90;;;;;;5151887;27;20145;-52
2021/05/19 00:14:17;;;;;;;15.18;11.75;;;7.30;99.90;;;;;;5150981;27;20997;-49
2021/05/19 00:16:50;;;;;;;13.10;10.93;;;7.20;99.90;;;;;;5150991;27;20510;-56
2021/05/19 00:19:17;;;;;;;13.23;9.95;;;7.20;99.90;;;;;;5151206;27;20049;-51
2021/05/19 00:21:46;;;;;;;13.07;9.10;;;7.20;99.90;;;;;;5150974;27;20069;-49
2021/05/19 00:24:14;;;;;;;13.88;9.88;;;7.10;99.90;;;;;;5151106;27;20050;-49
2021/05/19 00:26:40;;;;;;;11.77;10.13;;;7.10;99.90;;;;;;5153492;27;20791;-48
2021/05/19 00:29:12;;;;;;;15.68;10.90;;;7.10;99.90;;;;;;5151291;27;20042;-48
2021/05/19 00:31:42;;;;;;;12.73;10.18;;;7.10;99.90;;;;;;5151074;27;20199;-47
2021/05/19 00:34:15;;;;;;;12.00;8.32;;;7.10;99.90;;;;;;5151536;27;20043;-49
2021/05/19 00:36:41;;;;;;;;;;;7.10;99.90;;;;;;5152332;27;20035;-49
2021/05/19 00:39:13;;;;;;;8.43;6.95;;;7.00;99.90;;;;;;5151003;27;19947;-53
2021/05/19 00:41:42;;;;;;;10.70;7.32;;;7.00;99.90;;;;;;5150975;27;20402;-50
2021/05/19 00:44:13;;;;;;;14.70;9.70;;;7.10;99.90;;;;;;5151356;27;20057;-50
2021/05/19 00:46:43;;;;;;;10.60;8.38;;;7.10;99.90;;;;;;5148972;27;20047;-50
2021/05/19 00:49:14;;;;;;;10.82;8.63;;;7.20;99.90;;;;;;5148321;27;20106;-49
2021/05/19 00:51:44;;;;;;;10.75;9.23;;;7.20;99.90;;;;;;5150687;27;20042;-54
2021/05/19 00:54:13;;;;;;;11.73;10.55;;;7.30;99.90;;;;;;5130756;27;20138;-51
2021/05/19 00:56:44;;;;;;;13.25;10.70;;;7.30;99.90;;;;;;5149447;27;20145;-48
2021/05/19 00:59:15;;;;;;;;;;;7.40;99.90;;;;;;5131276;27;20069;-51
2021/05/19 01:01:56;;;;;;;15.52;11.20;;;7.40;99.90;;;;;;5133272;27;19929;-48
2021/05/19 01:04:29;;;;;;;14.48;11.23;;;7.50;99.90;;;;;;5131471;27;20054;-50
2021/05/19 01:09:49;;;;;;;16.52;14.18;;;7.50;99.90;;;;;;5131597;27;20058;-52
2021/05/19 01:12:18;;;;;;;14.13;12.63;;;7.60;99.90;;;;;;5154111;27;20042;-50
2021/05/19 01:14:45;;;;;;;14.70;12.32;;;7.60;99.90;;;;;;5150178;27;20152;-52
2021/05/19 01:17:15;;;;;;;12.45;10.70;;;7.60;99.90;;;;;;5150114;27;20498;-50
2021/05/19 01:19:53;;;;;;;11.05;9.93;;;7.70;99.90;;;;;;5150938;27;20065;-49
2021/05/19 01:22:31;;;;;;;15.63;12.65;;;7.70;99.90;;;;;;5149025;27;20050;-49
2021/05/19 01:25:01;;;;;;;12.13;10.93;;;7.70;99.90;;;;;;5129875;27;20483;-52
2021/05/19 01:27:31;;;;;;;14.10;12.10;;;7.70;99.90;;;;;;5131989;27;20046;-48
2021/05/19 01:30:00;;;;;;;16.73;12.95;;;7.80;99.90;;;;;;5150652;27;20046;-53
2021/05/19 01:32:30;;;;;;;15.55;13.35;;;7.70;99.90;;;;;;5142731;27;20030;-50
2021/05/19 01:34:56;;;;;;;18.17;16.23;;;7.80;99.90;;;;;;5150847;27;20051;-50
2021/05/19 01:37:29;;;;;;;18.98;16.58;;;7.80;99.90;;;;;;5131155;27;20804;-49
2021/05/19 01:40:00;;;;;;;15.52;13.88;;;7.80;99.90;;;;;;5129248;27;20047;-47
2021/05/19 01:42:26;;;;;;;17.88;15.20;;;7.80;99.90;;;;;;5155966;27;20043;-48
2021/05/19 01:45:08;;;;;;;18.75;16.83;;;7.80;99.90;;;;;;5129022;27;20039;-51
2021/05/19 01:47:46;;;;;;;21.10;17.45;;;7.80;99.90;;;;;;5150218;27;20051;-47
2021/05/19 01:50:17;;;;;;;22.17;17.77;;;7.80;99.90;;;;;;5147175;27;20045;-50
2021/05/19 01:52:46;;;;;;;21.33;18.52;;;7.80;99.90;;;;;;5150186;27;20099;-51
2021/05/19 01:55:20;;;;;;;23.23;19.13;;;7.80;99.90;;;;;;5129411;27;20047;-49
2021/05/19 01:57:47;;;;;;;21.05;17.95;;;7.90;99.90;;;;;;5148147;27;20860;-50
2021/05/19 02:00:18;;;;;;;25.80;18.58;;;7.90;99.90;;;;;;5145954;27;20054;-53
2021/05/19 02:03:06;;;;;;;22.48;18.20;;;7.90;99.90;;;;;;5131996;27;20047;-48
2021/05/19 02:05:46;;;;;;;24.45;20.05;;;7.90;99.90;;;;;;5130163;27;20042;-52
2021/05/19 02:08:15;;;;;;;22.65;19.88;;;8.00;99.90;;;;;;5150618;27;20038;-48
2021/05/19 02:10:47;;;;;;;22.60;19.42;;;7.90;99.90;;;;;;5134209;27;20038;-50
2021/05/19 02:13:17;;;;;;;25.50;22.63;;;8.00;99.90;;;;;;5149368;27;20046;-49
2021/05/19 02:15:44;;;;;;;23.52;20.65;;;8.00;99.90;;;;;;5130051;27;20053;-52
2021/05/19 02:18:18;;;;;;;20.35;18.35;;;8.00;99.90;;;;;;5148414;27;20042;-49
2021/05/19 02:20:47;;;;;;;26.42;21.88;;;8.00;99.90;;;;;;5129371;27;20053;-50
2021/05/19 02:23:18;;;;;;;22.00;18.85;;;8.10;99.90;;;;;;5149382;27;20095;-51
2021/05/19 02:25:48;;;;;;;23.88;20.23;;;8.10;99.90;;;;;;5142316;27;20161;-48
2021/05/19 02:28:17;;;;;;;22.98;19.63;;;8.10;99.90;;;;;;5133875;27;20046;-51
2021/05/19 02:30:49;;;;;;;24.42;21.50;;;8.10;99.90;;;;;;5131202;27;20054;-50
2021/05/19 02:33:21;;;;;;;24.52;22.08;;;8.10;99.90;;;;;;5130898;27;20575;-50
2021/05/19 02:35:57;;;;;;;25.63;21.30;;;8.10;99.90;;;;;;5130614;27;20046;-54
2021/05/19 02:38:23;;;;;;;23.23;19.23;;;8.10;99.90;;;;;;5130370;27;20122;-50
2021/05/19 02:40:56;;;;;;;21.33;19.13;;;8.10;99.90;;;;;;5129419;27;20551;-51
2021/05/19 02:43:25;;;;;;;24.45;21.95;;;8.10;99.90;;;;;;5130859;27;20037;-48
2021/05/19 02:45:54;;;;;;;24.17;21.67;;;8.10;99.90;;;;;;5150408;27;20062;-51
2021/05/19 02:48:21;;;;;;;25.17;22.27;;;8.10;99.90;;;;;;5148834;27;20051;-50
2021/05/19 02:50:48;;;;;;;25.83;22.92;;;8.20;99.90;;;;;;5148002;27;20270;-47
2021/05/19 02:53:17;;;;;;;25.35;22.38;;;8.20;99.90;;;;;;5152852;27;20387;-50
2021/05/19 02:55:47;;;;;;;26.85;23.98;;;8.20;99.90;;;;;;5148589;27;20046;-50
2021/05/19 02:58:19;;;;;;;25.52;22.50;;;8.20;99.90;;;;;;5128684;27;20059;-49
2021/05/19 03:00:48;;;;;;;25.00;22.13;;;8.20;99.90;;;;;;5148350;27;20061;-51
2021/05/19 03:03:15;;;;;;;26.77;22.77;;;8.20;99.90;;;;;;5130801;27;20118;-50
2021/05/19 03:05:45;;;;;;;26.67;24.00;;;8.20;99.90;;;;;;5148005;27;20145;-50
2021/05/19 03:08:11;;;;;;;27.38;24.23;;;8.30;99.90;;;;;;5148786;27;20058;-51
2021/05/19 03:10:41;;;;;;;29.48;24.35;;;8.30;99.90;;;;;;5148452;27;20046;-49
2021/05/19 03:13:10;;;;;;;28.60;25.55;;;8.30;99.90;;;;;;5148226;27;20487;-48
2021/05/19 03:15:39;;;;;;;35.35;28.20;;;8.30;99.90;;;;;;5148239;27;20505;-48
2021/05/19 03:18:09;;;;;;;30.38;25.73;;;8.30;99.90;;;;;;5148024;27;20087;-52
2021/05/19 03:20:38;;;;;;;31.05;26.63;;;8.30;99.90;;;;;;5148336;27;20050;-50
2021/05/19 03:23:07;;;;;;;30.80;25.77;;;8.40;99.90;;;;;;5145466;27;20053;-53
2021/05/19 03:25:36;;;;;;;28.75;25.27;;;8.30;99.90;;;;;;5148469;27;20157;-49
2021/05/19 03:28:08;;;;;;;38.97;31.33;;;8.40;99.90;;;;;;5148550;27;20038;-52
2021/05/19 03:30:35;;;;;;;27.50;24.52;;;8.40;99.90;;;;;;5148046;27;20478;-51
2021/05/19 03:33:06;;;;;;;30.73;27.52;;;8.30;99.90;;;;;;5148023;27;20176;-52
2021/05/19 03:35:35;;;;;;;31.25;25.33;;;8.40;99.90;;;;;;5150284;27;20043;-48
2021/05/19 03:38:02;;;;;;;27.45;24.55;;;8.40;99.90;;;;;;5148621;27;20084;-55
2021/05/19 03:40:29;;;;;;;28.13;22.55;;;8.40;99.90;;;;;;5129444;27;20065;-48
2021/05/19 03:42:58;;;;;;;31.83;25.67;;;8.40;99.90;;;;;;5148348;27;20047;-48
2021/05/19 03:45:25;;;;;;;29.00;25.55;;;8.40;99.90;;;;;;5148131;27;20046;-52
2021/05/19 03:47:53;;;;;;;35.45;28.95;;;8.40;99.90;;;;;;5147782;27;20068;-52
2021/05/19 03:50:22;;;;;;;29.95;26.75;;;8.40;99.90;;;;;;5152980;27;20038;-52
2021/05/19 03:52:48;;;;;;;32.92;27.83;;;8.40;99.90;;;;;;5148114;27;20047;-49
2021/05/19 03:55:18;;;;;;;33.88;28.58;;;8.50;99.90;;;;;;5147967;27;20045;-48
2021/05/19 03:57:47;;;;;;;36.97;28.35;;;8.40;99.90;;;;;;5147946;27;20070;-51
2021/05/19 04:00:24;;;;;;;35.35;28.17;;;8.50;99.90;;;;;;5147933;27;20199;-49
2021/05/19 04:02:50;;;;;;;33.42;26.27;;;8.50;99.90;;;;;;5148158;27;20046;-50
2021/05/19 04:05:26;;;;;;;28.02;24.08;;;8.50;99.90;;;;;;5128193;27;20554;-50
2021/05/19 04:07:57;;;;;;;26.92;23.98;;;8.50;99.90;;;;;;5145596;27;20067;-49
2021/05/19 04:10:26;;;;;;;26.48;23.55;;;8.50;99.90;;;;;;5148177;27;20490;-53
2021/05/19 04:12:53;;;;;;;26.67;20.98;;;8.50;99.90;;;;;;5128807;27;20058;-51
2021/05/19 04:15:26;;;;;;;24.65;21.88;;;8.60;99.90;;;;;;5148176;27;20046;-52
2021/05/19 04:17:59;;;;;;;22.98;20.33;;;8.60;99.90;;;;;;5153970;27;20063;-52
2021/05/19 04:20:25;;;;;;;26.60;22.52;;;8.60;99.90;;;;;;5151635;27;20118;-49
2021/05/19 04:22:54;;;;;;;26.90;22.23;;;8.60;99.90;;;;;;5125509;28;20047;-53
2021/05/19 04:25:21;;;;;;;23.40;18.80;;;8.60;99.90;;;;;;5147336;27;20051;-51
2021/05/19 04:27:50;;;;;;;23.60;21.00;;;8.70;99.90;;;;;;5152611;27;20050;-49
2021/05/19 04:30:17;;;;;;;22.45;18.77;;;8.70;99.90;;;;;;5147346;27;20054;-53
2021/05/19 04:32:44;;;;;;;23.90;21.05;;;8.70;99.90;;;;;;5147730;27;20042;-51
2021/05/19 04:35:13;;;;;;;23.52;20.17;;;8.70;99.90;;;;;;5150214;27;20117;-53
2021/05/19 04:37:45;;;;;;;22.90;19.48;;;8.80;99.90;;;;;;5150760;27;20054;-50
2021/05/19 04:40:14;;;;;;;24.10;20.20;;;8.80;99.90;;;;;;5151472;27;20050;-51
2021/05/19 04:42:43;;;;;;;22.25;19.88;;;8.80;99.90;;;;;;5150371;27;20130;-50
2021/05/19 04:45:14;;;;;;;24.05;21.35;;;8.90;99.90;;;;;;5154744;27;20148;-50
2021/05/19 04:47:42;;;;;;;21.98;19.75;;;8.90;99.90;;;;;;5151315;27;20054;-49
2021/05/19 04:50:10;;;;;;;24.15;19.63;;;9.00;99.90;;;;;;5151022;27;20413;-49
2021/05/19 04:52:36;;;;;;;20.08;17.88;;;9.00;99.90;;;;;;5151413;27;20078;-49
2021/05/19 04:55:07;;;;;;;19.77;17.77;;;9.10;99.90;;;;;;5151399;27;20058;-51
2021/05/19 04:57:37;;;;;;;22.33;18.65;;;9.10;99.90;;;;;;5150369;27;20133;-51
2021/05/19 05:00:11;;;;;;;23.90;17.85;;;9.20;99.90;;;;;;5152501;27;20063;-52
2021/05/19 05:02:41;;;;;;;;;;;9.30;99.90;;;;;;5151092;27;20063;-49
2021/05/19 05:05:09;;;;;;;18.48;16.33;;;9.40;99.90;;;;;;5151461;27;19966;-48
2021/05/19 05:07:37;;;;;;;17.05;14.85;;;9.70;99.90;;;;;;5149102;27;20043;-48
2021/05/19 05:10:10;;;;;;;20.20;15.30;;;10.10;99.90;;;;;;5151510;27;20046;-49
2021/05/19 05:12:39;;;;;;;17.52;14.20;;;10.30;99.90;;;;;;5150689;27;20039;-51
2021/05/19 05:15:11;;;;;;;17.60;14.20;;;10.70;99.90;;;;;;5147967;27;20107;-48
2021/05/19 05:17:39;;;;;;;16.88;13.23;;;10.90;99.30;;;;;;5133063;27;20049;-52
2021/05/19 05:20:10;;;;;;;17.23;13.07;;;11.00;99.20;;;;;;5148735;27;20046;-50
2021/05/19 05:22:39;;;;;;;18.38;14.25;;;10.80;98.80;;;;;;5156739;27;20383;-51
2021/05/19 05:25:09;;;;;;;25.35;20.10;;;10.90;98.70;;;;;;5146856;27;20391;-51
2021/05/19 05:27:39;;;;;;;22.58;19.67;;;11.10;99.20;;;;;;5146118;27;20183;-50
2021/05/19 05:30:06;;;;;;;60.40;45.30;;;11.10;98.70;;;;;;5150405;27;20154;-52
2021/05/19 05:32:35;;;;;;;33.90;29.77;;;11.10;98.80;;;;;;5149816;27;20530;-53
2021/05/19 05:35:05;;;;;;;25.90;21.02;;;11.20;98.60;;;;;;5149661;27;20046;-49
2021/05/19 05:37:32;;;;;;;17.23;15.48;;;11.30;98.00;;;;;;5149784;27;20046;-50
2021/05/19 05:40:03;;;;;;;20.95;15.82;;;11.50;97.70;;;;;;5151309;27;20039;-49
2021/05/19 05:42:34;;;;;;;28.13;24.35;;;11.60;97.90;;;;;;5149222;27;20124;-50
2021/05/19 05:45:06;;;;;;;19.65;17.55;;;11.90;97.70;;;;;;5149508;27;20106;-51
2021/05/19 05:47:36;;;;;;;19.95;17.65;;;11.90;97.30;;;;;;5149579;27;20057;-50
2021/05/19 05:50:06;;;;;;;76.75;60.53;;;11.80;97.00;;;;;;5148462;27;20043;-52
2021/05/19 05:52:32;;;;;;;58.78;47.63;;;11.70;96.90;;;;;;5145645;27;20074;-51
2021/05/19 05:54:59;;;;;;;25.42;21.52;;;11.50;96.90;;;;;;5152283;27;20394;-50
2021/05/19 05:57:30;;;;;;;28.20;23.92;;;11.40;96.70;;;;;;5151465;27;20047;-49
2021/05/19 05:59:59;;;;;;;26.35;19.27;;;11.30;97.10;;;;;;5149881;27;20098;-52
2021/05/19 06:02:28;;;;;;;28.90;19.42;;;11.20;97.70;;;;;;5144399;27;20491;-52
2021/05/19 06:05:00;;;;;;;25.40;20.67;;;11.00;98.30;;;;;;5152790;27;20039;-50
2021/05/19 06:07:26;;;;;;;;;;;11.00;97.90;;;;;;5128971;27;20047;-50
2021/05/19 06:09:55;;;;;;;41.75;36.70;;;10.90;98.00;;;;;;5148588;27;19942;-46
2021/05/19 06:12:26;;;;;;;23.85;21.00;;;10.90;98.30;;;;;;5153869;27;20098;-47
2021/05/19 06:14:52;;;;;;;89.03;71.80;;;10.90;98.00;;;;;;5147281;27;20046;-49
2021/05/19 06:17:19;;;;;;;102.65;85.20;;;10.90;98.20;;;;;;5154120;27;20054;-47
2021/05/19 06:19:49;;;;;;;32.83;26.25;;;10.90;98.40;;;;;;5138243;27;20141;-48
2021/05/19 06:22:17;;;;;;;39.20;32.58;;;11.00;98.10;;;;;;5147633;27;20061;-51
2021/05/19 06:24:48;;;;;;;29.23;23.52;;;11.00;98.60;;;;;;5148795;27;20111;-47
2021/05/19 06:27:15;;;;;;;33.72;24.70;;;11.00;98.30;;;;;;5148772;27;20039;-47
2021/05/19 06:29:44;;;;;;;32.70;25.75;;;11.00;98.20;;;;;;5157469;27;20034;-49
2021/05/19 06:32:13;;;;;;;33.90;24.98;;;11.10;98.50;;;;;;5150138;27;20046;-47
2021/05/19 06:34:39;;;;;;;52.78;44.65;;;11.30;98.60;;;;;;5134888;27;20050;-51
2021/05/19 06:37:08;;;;;;;70.25;59.42;;;11.30;98.10;;;;;;5136665;27;20498;-48
2021/05/19 06:39:34;;;;;;;107.70;91.90;;;11.40;98.20;;;;;;5137081;27;20179;-48
2021/05/19 06:42:01;;;;;;;34.90;28.13;;;11.50;98.70;;;;;;5140723;27;20042;-52
2021/05/19 06:44:27;;;;;;;32.17;27.13;;;11.50;97.90;;;;;;5145508;27;20049;-48
2021/05/19 06:46:55;;;;;;;30.08;25.80;;;11.50;97.90;;;;;;5148540;27;20062;-50
2021/05/19 06:49:24;;;;;;;29.83;25.67;;;11.60;97.90;;;;;;5147836;27;20093;-53
2021/05/19 06:51:53;;;;;;;32.92;25.83;;;11.70;97.90;;;;;;5147135;27;20453;-56
2021/05/19 06:54:22;;;;;;;29.38;24.58;;;11.80;97.90;;;;;;5150622;27;20051;-55
2021/05/19 06:56:49;;;;;;;31.50;24.65;;;11.90;97.70;;;;;;5145995;27;20043;-55
2021/05/19 06:59:17;;;;;;;33.20;26.40;;;12.00;97.50;;;;;;5144602;27;20047;-55
2021/05/19 07:01:44;;;;;;;27.52;24.05;;;12.00;97.20;;;;;;5148022;27;20035;-52
2021/05/19 07:04:15;;;;;;;50.63;42.38;;;12.20;97.10;;;;;;5148767;27;20075;-54
2021/05/19 07:06:41;;;;;;;30.40;26.70;;;12.30;96.30;;;;;;5153293;27;20046;-55
2021/05/19 07:09:10;;;;;;;31.88;25.33;;;12.60;96.10;;;;;;5159932;27;20065;-51
2021/05/19 07:11:38;;;;;;;26.00;21.95;;;13.20;96.50;;;;;;5149058;27;20486;-53
2021/05/19 07:14:07;;;;;;;24.27;21.33;;;13.60;94.90;;;;;;5148158;27;20066;-53
2021/05/19 07:16:36;;;;;;;25.23;21.70;;;14.20;95.20;;;;;;5131496;27;20051;-54
2021/05/19 07:19:03;;;;;;;27.55;24.00;;;14.80;95.40;;;;;;5149319;27;20054;-53
2021/05/19 07:21:31;;;;;;;22.55;19.55;;;15.00;93.20;;;;;;5156332;27;20125;-54
2021/05/19 07:23:58;;;;;;;27.33;21.55;;;15.20;92.80;;;;;;5144755;27;20070;-53
2021/05/19 07:26:25;;;;;;;22.73;18.60;;;15.90;93.70;;;;;;5150369;27;20050;-53
2021/05/19 07:28:54;;;;;;;23.42;18.02;;;16.10;92.00;;;;;;5149482;27;20585;-54
2021/05/19 07:31:24;;;;;;;22.67;17.70;;;15.80;92.60;;;;;;5147289;27;20066;-52
2021/05/19 07:33:50;;;;;;;21.55;16.30;;;15.60;91.70;;;;;;5146249;27;20051;-50
2021/05/19 07:36:22;;;;;;;20.92;18.83;;;15.20;91.30;;;;;;5148339;27;20046;-53
2021/05/19 07:38:50;;;;;;;21.38;19.10;;;15.20;92.00;;;;;;5143590;27;20123;-52
2021/05/19 07:41:28;;;;;;;41.00;34.55;;;15.30;92.00;;;;;;5153085;27;20094;-54
2021/05/19 07:43:58;;;;;;;22.45;17.70;;;15.80;91.80;;;;;;5142934;27;20080;-53
2021/05/19 07:46:27;;;;;;;22.20;17.58;;;16.20;91.20;;;;;;5151819;27;20126;-53
2021/05/19 07:48:53;;;;;;;24.48;21.88;;;16.10;88.70;;;;;;5150768;27;20501;-52
2021/05/19 07:51:19;;;;;;;22.30;17.83;;;16.00;90.90;;;;;;5157597;27;20061;-53
2021/05/19 07:53:53;;;;;;;20.92;17.77;;;15.90;89.20;;;;;;5146773;27;20561;-52
2021/05/19 07:56:28;;;;;;;21.73;17.20;;;15.90;90.60;;;;;;5145154;27;20051;-53
2021/05/19 07:59:18;;;;;;;20.17;15.73;;;16.20;89.60;;;;;;5143947;27;20062;-52
2021/05/19 08:02:01;;;;;;;23.90;16.67;;;16.00;90.20;;;;;;5129959;27;20043;-49
2021/05/19 08:04:32;;;;;;;20.92;16.58;;;16.50;89.00;;;;;;5146844;27;20407;-51
2021/05/19 08:07:01;;;;;;;21.02;18.02;;;16.20;89.30;;;;;;5148087;27;20157;-50
2021/05/19 08:09:30;;;;;;;21.00;17.55;;;15.90;88.50;;;;;;5152425;27;20083;-51
2021/05/19 08:12:00;;;;;;;21.50;17.95;;;15.20;89.70;;;;;;5149665;27;20047;-51
2021/05/19 08:14:32;;;;;;;20.42;16.70;;;15.00;90.60;;;;;;5152460;27;20644;-53
2021/05/19 08:17:01;;;;;;;18.00;16.05;;;15.40;88.10;;;;;;5153311;27;20043;-50
2021/05/19 08:19:30;;;;;;;20.67;16.73;;;15.60;90.20;;;;;;5150962;27;20054;-50
2021/05/19 08:21:57;;;;;;;44.22;39.33;;;15.90;85.40;;;;;;5132268;27;20133;-52
2021/05/19 08:24:23;;;;;;;25.27;22.55;;;15.80;89.90;;;;;;5147196;27;20507;-51
2021/05/19 08:26:49;;;;;;;25.17;21.77;;;16.40;90.00;;;;;;5151140;27;20051;-51
2021/05/19 08:29:27;;;;;;;18.95;16.80;;;16.10;89.10;;;;;;5152105;27;20049;-53
2021/05/19 08:31:55;;;;;;;17.05;15.25;;;16.00;87.60;;;;;;5160131;27;20045;-51
2021/05/19 08:34:24;;;;;;;24.48;19.70;;;15.70;86.80;;;;;;5151380;27;20051;-50
2021/05/19 08:36:51;;;;;;;26.02;17.38;;;16.10;87.20;;;;;;5152729;27;20133;-49
2021/05/19 08:39:19;;;;;;;19.65;17.30;;;16.00;86.20;;;;;;5151101;27;20206;-51
2021/05/19 08:41:49;;;;;;;20.20;16.73;;;15.90;87.20;;;;;;5151738;27;20126;-50
2021/05/19 08:44:17;;;;;;;19.13;16.25;;;15.70;84.50;;;;;;5150267;27;20035;-51
2021/05/19 08:46:47;;;;;;;19.25;16.90;;;16.10;88.10;;;;;;5153984;27;20047;-52
2021/05/19 08:49:14;;;;;;;21.35;18.30;;;16.80;87.50;;;;;;5150754;27;20080;-51
2021/05/19 08:51:44;;;;;;;16.55;14.80;;;17.40;83.50;;;;;;5150269;27;20046;-51
2021/05/19 08:54:12;;;;;;;17.85;15.98;;;18.20;84.60;;;;;;5157224;27;20083;-52
2021/05/19 08:56:46;;;;;;;14.45;12.93;;;18.10;81.50;;;;;;5151208;27;20039;-53
2021/05/19 08:59:16;;;;;;;16.67;14.90;;;18.00;79.50;;;;;;5151070;27;20046;-53
2021/05/19 09:01:45;;;;;;;22.30;16.42;;;17.00;79.50;;;;;;5130437;27;20104;-52
2021/05/19 09:04:18;;;;;;;15.85;14.23;;;16.80;81.70;;;;;;5145919;27;20045;-49
2021/05/19 09:06:54;;;;;;;16.45;14.15;;;16.50;80.60;;;;;;5141343;27;20624;-51
2021/05/19 09:09:28;;;;;;;17.02;14.45;;;16.40;82.90;;;;;;5148781;27;20094;-51
2021/05/19 09:12:10;;;;;;;17.83;15.48;;;16.00;81.00;;;;;;5130998;27;20054;-50
2021/05/19 09:14:46;;;;;;;19.92;15.50;;;15.80;83.10;;;;;;5142408;27;20044;-52
2021/05/19 09:17:18;;;;;;;17.58;15.57;;;15.70;82.60;;;;;;5151053;27;20070;-51
2021/05/19 09:19:49;;;;;;;20.92;15.32;;;15.40;82.40;;;;;;5147358;27;20053;-53
2021/05/19 09:22:22;;;;;;;16.90;15.30;;;15.20;84.90;;;;;;5148478;27;20046;-51
2021/05/19 09:24:50;;;;;;;22.02;17.50;;;15.10;86.50;;;;;;5149218;27;20185;-46
2021/05/19 09:27:23;;;;;;;24.55;21.27;;;15.00;87.80;;;;;;5150148;27;20451;-50
2021/05/19 09:29:53;;;;;;;28.85;25.75;;;14.80;88.00;;;;;;5150383;27;20827;-48
2021/05/19 09:32:21;;;;;;;32.10;28.15;;;14.70;89.20;;;;;;5148807;27;20079;-52
2021/05/19 09:34:54;;;;;;;18.60;16.60;;;14.60;89.20;;;;;;5148846;27;20046;-53
2021/05/19 09:37:30;;;;;;;18.95;16.20;;;14.40;89.50;;;;;;5153276;27;20506;-52
2021/05/19 09:40:06;;;;;;;18.23;14.95;;;14.40;90.90;;;;;;5153647;27;20047;-52
2021/05/19 09:42:40;;;;;;;15.98;14.30;;;14.40;90.70;;;;;;5134685;27;20038;-50
2021/05/19 09:45:25;;;;;;;18.40;15.23;;;14.30;90.50;;;;;;5140551;27;20042;-51
2021/05/19 09:47:54;;;;;;;24.95;20.88;;;14.30;91.30;;;;;;5142553;27;20046;-53
2021/05/19 09:50:22;;;;;;;22.30;19.80;;;14.20;91.30;;;;;;5147173;27;20130;-55
2021/05/19 09:53:09;;;;;;;28.55;23.98;;;14.10;91.80;;;;;;5142820;27;20066;-56
2021/05/19 09:55:57;;;;;;;23.88;21.45;;;14.10;92.20;;;;;;5142150;27;20047;-58
2021/05/19 09:58:42;;;;;;;24.38;21.77;;;14.00;92.50;;;;;;5141197;27;20053;-56
2021/05/19 10:01:11;;;;;;;30.35;27.10;;;13.70;93.70;;;;;;5149769;27;20046;-59
2021/05/19 10:03:38;;;;;;;25.75;22.67;;;13.60;94.20;;;;;;5146950;27;20047;-56
2021/05/19 10:06:13;;;;;;;25.67;22.92;;;13.40;94.60;;;;;;5147666;27;20457;-56
2021/05/19 10:08:43;;;;;;;20.77;18.65;;;13.40;94.60;;;;;;5149042;27;20098;-56
2021/05/19 10:11:10;;;;;;;11.60;8.63;;;13.20;94.70;;;;;;5144139;27;20061;-57
2021/05/19 10:13:42;;;;;;;10.75;8.60;;;12.90;92.50;;;;;;5155851;27;20793;-57
2021/05/19 10:16:20;;;;;;;8.50;5.78;;;12.80;93.30;;;;;;5147335;27;20047;-56
2021/05/19 10:18:53;;;;;;;9.27;6.90;;;12.70;93.00;;;;;;5148825;27;20050;-50
2021/05/19 10:21:28;;;;;;;9.45;6.28;;;12.60;93.60;;;;;;5147313;27;20039;-55
2021/05/19 10:24:12;;;;;;;9.77;6.70;;;12.60;93.50;;;;;;5149173;27;20043;-53
2021/05/19 10:27:04;;;;;;;8.52;5.57;;;12.60;93.60;;;;;;5130351;27;20057;-55
2021/05/19 10:29:55;;;;;;;8.02;5.20;;;12.60;94.10;;;;;;5148984;27;20050;-53
2021/05/19 10:32:29;;;;;;;9.15;6.43;;;12.70;93.80;;;;;;5151655;27;20051;-53
2021/05/19 10:35:09;;;;;;;12.45;10.50;;;12.90;94.10;;;;;;5148610;27;20043;-55
2021/05/19 10:37:39;;;;;;;12.55;10.75;;;13.00;94.80;;;;;;5147880;27;20043;-51
2021/05/19 10:40:20;;;;;;;12.23;9.80;;;13.20;95.00;;;;;;5129008;27;20043;-56
2021/05/19 10:42:53;;;;;;;13.10;9.40;;;13.40;94.90;;;;;;5147508;27;20077;-55
2021/05/19 10:45:21;;;;;;;10.93;9.13;;;13.70;94.70;;;;;;5148475;27;20051;-56
2021/05/19 10:47:49;;;;;;;11.77;9.60;;;14.00;94.60;;;;;;5149007;27;20513;-56
2021/05/19 10:58:51;;;;;;;7.53;4.80;;;14.20;92.10;;;;;;5149130;27;20073;-56
2021/05/19 11:01:42;;;;;;;10.13;7.82;;;14.10;92.10;;;;;;5148741;27;20041;-56
2021/05/19 11:04:26;;;;;;;7.40;5.57;;;13.70;93.30;;;;;;5149172;27;20111;-56
2021/05/19 11:07:01;;;;;;;7.72;6.45;;;13.20;92.70;;;;;;5147959;27;20132;-54
2021/05/19 11:09:34;;;;;;;8.25;7.00;;;13.20;93.40;;;;;;5149590;27;20749;-56
2021/05/19 11:12:24;;;;;;;8.23;4.85;;;13.00;94.10;;;;;;5155377;27;20413;-54
2021/05/19 11:14:58;;;;;;;5.68;3.72;;;12.80;92.80;;;;;;5153756;27;20403;-56
2021/05/19 11:17:36;;;;;;;7.00;4.38;;;12.60;93.40;;;;;;5148438;27;20129;-55
2021/05/19 11:20:09;;;;;;;7.20;4.25;;;12.40;93.60;;;;;;5143377;27;20103;-56
2021/05/19 11:22:40;;;;;;;8.68;5.15;;;12.30;93.70;;;;;;5148896;27;20047;-52
2021/05/19 11:25:07;;;;;;;8.30;5.68;;;12.10;94.60;;;;;;5148442;27;20068;-51
2021/05/19 11:27:35;;;;;;;7.70;6.15;;;12.10;95.20;;;;;;5148222;27;20162;-48
2021/05/19 11:30:07;;;;;;;9.63;6.95;;;11.90;95.00;;;;;;5148901;27;20058;-49
2021/05/19 11:32:37;;;;;;;9.82;8.05;;;12.00;95.40;;;;;;5148338;27;20084;-50
2021/05/19 11:35:17;;;;;;;12.38;8.60;;;12.10;95.40;;;;;;5129659;27;20043;-50
2021/05/19 11:37:56;;;;;;;10.18;8.88;;;12.20;95.60;;;;;;5148134;27;20074;-48
2021/05/19 11:40:45;;;;;;;10.23;9.23;;;12.30;95.40;;;;;;5148793;27;20043;-53
2021/05/19 11:43:16;;;;;;;9.20;8.30;;;12.20;95.90;;;;;;5147853;27;20048;-52
2021/05/19 11:45:52;;;;;;;22.23;19.42;;;12.30;95.30;;;;;;5152485;27;20371;-50
2021/05/19 11:48:24;;;;;;;29.15;23.83;;;12.60;95.80;;;;;;5109477;28;20132;-49
2021/05/19 11:50:55;;;;;;;16.83;13.97;;;12.70;96.40;;;;;;5111016;28;20044;-47
2021/05/19 11:53:21;;;;;;;18.17;14.93;;;12.70;96.10;;;;;;5111082;28;20301;-48
2021/05/19 11:55:51;;;;;;;14.38;12.80;;;12.70;95.70;;;;;;5113000;28;20043;-51
2021/05/19 11:58:27;;;;;;;12.65;11.45;;;12.70;95.90;;;;;;5111528;28;20142;-50
2021/05/19 12:01:01;;;;;;;11.93;10.43;;;12.70;96.50;;;;;;5109592;28;20055;-53
2021/05/19 12:03:30;;;;;;;13.07;11.65;;;12.70;96.40;;;;;;5110005;28;20454;-48
2021/05/19 12:06:00;;;;;;;15.40;12.18;;;12.70;96.60;;;;;;5108192;27;20117;-51
2021/05/19 12:08:48;;;;;;;12.23;11.02;;;12.60;96.20;;;;;;5111109;27;20051;-51
2021/05/19 12:11:23;;;;;;;13.18;9.40;;;12.50;96.80;;;;;;5114012;27;20039;-46
2021/05/19 12:13:55;;;;;;;11.35;9.13;;;12.40;97.00;;;;;;5113636;28;20493;-48
2021/05/19 12:16:34;;;;;;;12.32;8.68;;;12.40;97.30;;;;;;5107718;28;20604;-46
2021/05/19 12:19:25;;;;;;;14.75;9.20;;;12.40;97.50;;;;;;5110946;28;20040;-50
2021/05/19 12:22:06;;;;;;;11.15;7.82;;;12.50;97.60;;;;;;5110404;28;20174;-46
2021/05/19 12:24:33;;;;;;;11.45;8.23;;;12.50;98.00;;;;;;5109028;28;20047;-48
2021/05/19 12:27:00;;;;;;;10.43;8.52;;;12.60;97.60;;;;;;5112877;27;20069;-50
2021/05/19 12:29:39;;;;;;;10.25;7.88;;;12.70;97.70;;;;;;5110708;28;20055;-48
2021/05/19 12:32:11;;;;;;;9.93;7.43;;;12.80;97.70;;;;;;5118142;27;20039;-50
2021/05/19 12:34:38;;;;;;;7.55;4.90;;;13.00;97.70;;;;;;5113461;27;20051;-49
2021/05/19 12:37:05;;;;;;;6.00;5.38;;;13.10;97.30;;;;;;5108133;28;20047;-49
2021/05/19 12:39:32;;;;;;;6.13;4.57;;;13.20;96.90;;;;;;5105692;27;20500;-51
2021/05/19 12:42:10;;;;;;;6.85;4.50;;;13.50;96.80;;;;;;5110698;28;20433;-51
2021/05/19 12:44:37;;;;;;;8.23;6.03;;;13.80;95.10;;;;;;5108880;28;20039;-48
2021/05/19 12:47:08;;;;;;;23.25;19.48;;;14.20;95.00;;;;;;5128614;27;20054;-51
2021/05/19 12:49:38;;;;;;;6.83;5.87;;;14.60;95.30;;;;;;5152147;27;20041;-53
2021/05/19 12:52:26;;;;;;;20.35;16.60;;;14.90;93.80;;;;;;5151225;27;20053;-49
2021/05/19 12:54:53;;;;;;;7.60;5.88;;;15.00;93.50;;;;;;5134222;27;20068;-49
2021/05/19 12:57:31;;;;;;;8.45;6.47;;;14.90;93.10;;;;;;5129589;27;20058;-47
2021/05/19 13:00:15;;;;;;;8.68;7.80;;;14.80;92.50;;;;;;5133207;27;20050;-54
2021/05/19 13:02:45;;;;;;;13.55;12.20;;;14.70;92.00;;;;;;5150986;27;20050;-54
2021/05/19 13:05:23;;;;;;;10.82;9.25;;;14.50;93.30;;;;;;5158132;27;20567;-52
2021/05/19 13:07:51;;;;;;;23.60;19.35;;;14.20;92.10;;;;;;5151151;27;20055;-50